Hauptseite
METAR-TAF:

METAR-TAF

Flughäfen :

Militärflugplatz Chièvres

Chièvres, Belgien

Breite: 50-34N, Länge: 003-50E, Höhe: 60 m

Beobachtung

Neuester Wetterbericht von vor 47 Minuten, um 10:25 UTC
Wind 4 kt aus Nordwest
Temperatur 24°C
Luftfeuchtigkeit 44%
Luftdruck 1019 hPa
Sichtweite 10 km oder mehr

METAR: EBCV 191025Z AUTO 32004KT 9999 NCD 24/11 Q1019 BLU

Zeit: 13:12 (11:12 UTC)

Prognose

Neuester Wetterbericht von vor 2 Stunden und 31 Minuten, um 08:41 UTC
Gültige Prognose vom 19 um 10 UTC bis 19 um 19 UTC
Wind 5 kt aus Nord
Sichtweite 10 km oder mehr
Leicht bewölkt in der Höhe von 5000 ft

TAF: EBCV 190841Z 1910/1919 35005KT 9999 FEW050 BY EBWM

Wetterbeobachtungen und Prognosen von mehr als 4000 Flughäfen (METAR und TAF Bericht).

Die verfügbaren Stationen werden durch gelbe und rote Markierungen auf der Karte dargestellt.

Führen Sie die Maus auf sie, um den Namen der Station zu sehen.

Darauf klicken, um die Beobachtung von Wetterbeobachtungen und Prognosen zu sehen.

Um die Karte zu ändern : klicken Sie auf den grünen Tasten mit einem schwarzen Kreuz Zum Vergrößern, auf den grünen Button mit einem Gedankenstrich zu verkleinern, oder auf die grünen Pfeile für benachbarte Karten.


METAR-TAF: